CYGW

Kuujjuarapik Airport

Kuujjuarapik, Quebec, Canada
METAR CYGW 221800Z AUTO 22007G15KT 170V240 9SM CLR 08/M06 A3015 RMK SLP212
Observed Flight Rules
Apr-22 @ 18:00 UTC (15 minutes ago) Visual Flight Rules
Wind Visibility Clouds
220° at 7 knots
 Gusting to 15 knots
9 miles
  • Clear skies
Temperatures Readings
Current 8°C / 46°F
Dewpoint -6°C / 21°F
Humidity 37%
Altimeter 30.15" Hg
Pressure 1021.2 hPa
Elevation 12
METAR CYGW 221800Z AUTO 22007G15KT 170V240 9SM CLR 08/M06 A3015 RMK SLP212
Observed Flight Rules
Apr-22 @ 18:00 UTC
(15 minutes ago)
VFR
Wind Visibility
220° at 7 knots
 Gusting to 15 knots
9 miles
Clouds
  • Clear skies
Temperature Dewpoint
8°C / 46°F -6°C / 21°F
Humidity Altimeter Pressure
37% 30.15" Hg 1021.2 hPa